sensor_id;sensor_type;location;lat;lon;timestamp;P1;durP1;ratioP1;P2;durP2;ratioP2
19059;SDS011;9663;48.996;8.334;2023-02-08T00:00:19;7.95;;;3.83;;
19059;SDS011;9663;48.996;8.334;2023-02-08T00:02:46;9.23;;;4.00;;
19059;SDS011;9663;48.996;8.334;2023-02-08T00:05:13;9.00;;;3.70;;
19059;SDS011;9663;48.996;8.334;2023-02-08T00:07:39;7.75;;;3.85;;
19059;SDS011;9663;48.996;8.334;2023-02-08T00:10:04;8.40;;;3.67;;
19059;SDS011;9663;48.996;8.334;2023-02-08T00:12:31;7.35;;;3.65;;
19059;SDS011;9663;48.996;8.334;2023-02-08T00:14:58;7.10;;;2.97;;
19059;SDS011;9663;48.996;8.334;2023-02-08T00:17:24;7.57;;;3.75;;
19059;SDS011;9663;48.996;8.334;2023-02-08T00:19:50;7.68;;;3.63;;
19059;SDS011;9663;48.996;8.334;2023-02-08T00:22:15;8.10;;;3.65;;
19059;SDS011;9663;48.996;8.334;2023-02-08T00:24:41;7.28;;;3.33;;
19059;SDS011;9663;48.996;8.334;2023-02-08T00:27:07;7.97;;;3.92;;
19059;SDS011;9663;48.996;8.334;2023-02-08T00:29:33;8.35;;;3.50;;
19059;SDS011;9663;48.996;8.334;2023-02-08T00:31:58;7.32;;;3.28;;
19059;SDS011;9663;48.996;8.334;2023-02-08T00:34:24;8.85;;;3.80;;
19059;SDS011;9663;48.996;8.334;2023-02-08T00:36:50;7.93;;;3.60;;
19059;SDS011;9663;48.996;8.334;2023-02-08T00:39:15;7.05;;;3.50;;
19059;SDS011;9663;48.996;8.334;2023-02-08T00:41:41;7.50;;;3.63;;
19059;SDS011;9663;48.996;8.334;2023-02-08T00:44:07;6.75;;;3.47;;
19059;SDS011;9663;48.996;8.334;2023-02-08T00:46:32;8.05;;;3.70;;
19059;SDS011;9663;48.996;8.334;2023-02-08T00:48:58;7.47;;;3.38;;
19059;SDS011;9663;48.996;8.334;2023-02-08T00:51:24;7.97;;;3.92;;
19059;SDS011;9663;48.996;8.334;2023-02-08T00:53:49;7.75;;;3.83;;
19059;SDS011;9663;48.996;8.334;2023-02-08T00:56:15;7.32;;;3.65;;
19059;SDS011;9663;48.996;8.334;2023-02-08T00:58:41;7.47;;;3.88;;
19059;SDS011;9663;48.996;8.334;2023-02-08T01:01:08;6.70;;;3.33;;
19059;SDS011;9663;48.996;8.334;2023-02-08T01:03:36;8.93;;;3.67;;
19059;SDS011;9663;48.996;8.334;2023-02-08T01:06:05;8.05;;;3.97;;
19059;SDS011;9663;48.996;8.334;2023-02-08T01:08:38;7.07;;;3.35;;
19059;SDS011;9663;48.996;8.334;2023-02-08T01:11:11;8.48;;;3.88;;
19059;SDS011;9663;48.996;8.334;2023-02-08T01:13:42;7.53;;;3.83;;
19059;SDS011;9663;48.996;8.334;2023-02-08T01:16:16;8.45;;;3.65;;
19059;SDS011;9663;48.996;8.334;2023-02-08T01:18:49;7.88;;;4.20;;
19059;SDS011;9663;48.996;8.334;2023-02-08T01:21:19;8.27;;;3.80;;
19059;SDS011;9663;48.996;8.334;2023-02-08T01:23:49;7.57;;;3.60;;
19059;SDS011;9663;48.996;8.334;2023-02-08T01:26:16;8.35;;;3.88;;
19059;SDS011;9663;48.996;8.334;2023-02-08T01:28:46;7.07;;;3.38;;
19059;SDS011;9663;48.996;8.334;2023-02-08T01:31:14;7.95;;;4.20;;
19059;SDS011;9663;48.996;8.334;2023-02-08T01:33:43;7.35;;;3.78;;
19059;SDS011;9663;48.996;8.334;2023-02-08T01:36:09;8.85;;;3.63;;
19059;SDS011;9663;48.996;8.334;2023-02-08T01:38:36;7.50;;;3.63;;
19059;SDS011;9663;48.996;8.334;2023-02-08T01:41:03;7.32;;;3.60;;
19059;SDS011;9663;48.996;8.334;2023-02-08T01:43:34;7.53;;;3.80;;
19059;SDS011;9663;48.996;8.334;2023-02-08T01:46:42;6.18;;;3.22;;
19059;SDS011;9663;48.996;8.334;2023-02-08T01:49:15;9.18;;;3.97;;
19059;SDS011;9663;48.996;8.334;2023-02-08T01:51:58;7.72;;;3.22;;
19059;SDS011;9663;48.996;8.334;2023-02-08T01:54:27;7.60;;;3.58;;
19059;SDS011;9663;48.996;8.334;2023-02-08T01:57:00;7.90;;;3.85;;
19059;SDS011;9663;48.996;8.334;2023-02-08T01:59:29;8.45;;;4.05;;
19059;SDS011;9663;48.996;8.334;2023-02-08T02:02:10;7.43;;;3.40;;
19059;SDS011;9663;48.996;8.334;2023-02-08T02:04:40;7.57;;;3.40;;
19059;SDS011;9663;48.996;8.334;2023-02-08T02:07:06;7.75;;;3.55;;
19059;SDS011;9663;48.996;8.334;2023-02-08T02:09:37;7.10;;;3.20;;
19059;SDS011;9663;48.996;8.334;2023-02-08T02:12:10;7.50;;;3.38;;
19059;SDS011;9663;48.996;8.334;2023-02-08T02:14:38;8.20;;;3.58;;
19059;SDS011;9663;48.996;8.334;2023-02-08T02:17:05;7.70;;;3.60;;
19059;SDS011;9663;48.996;8.334;2023-02-08T02:19:47;8.30;;;4.00;;
19059;SDS011;9663;48.996;8.334;2023-02-08T02:29:07;7.53;;;3.40;;
19059;SDS011;9663;48.996;8.334;2023-02-08T02:37:27;7.60;;;3.85;;
19059;SDS011;9663;48.996;8.334;2023-02-08T02:49:03;7.13;;;3.28;;
19059;SDS011;9663;48.996;8.334;2023-02-08T02:54:23;6.75;;;3.28;;
19059;SDS011;9663;48.996;8.334;2023-02-08T02:56:59;7.90;;;3.58;;
19059;SDS011;9663;48.996;8.334;2023-02-08T02:59:33;6.28;;;3.03;;
19059;SDS011;9663;48.996;8.334;2023-02-08T03:02:01;6.60;;;3.40;;
19059;SDS011;9663;48.996;8.334;2023-02-08T03:07:04;7.47;;;3.28;;
19059;SDS011;9663;48.996;8.334;2023-02-08T03:15:39;7.78;;;3.78;;
19059;SDS011;9663;48.996;8.334;2023-02-08T03:27:05;7.45;;;3.78;;
19059;SDS011;9663;48.996;8.334;2023-02-08T03:32:20;7.45;;;3.53;;
19059;SDS011;9663;48.996;8.334;2023-02-08T03:35:15;8.93;;;3.63;;
19059;SDS011;9663;48.996;8.334;2023-02-08T03:37:49;8.13;;;3.92;;
19059;SDS011;9663;48.996;8.334;2023-02-08T03:40:26;7.57;;;3.30;;
19059;SDS011;9663;48.996;8.334;2023-02-08T03:43:00;6.72;;;3.08;;
19059;SDS011;9663;48.996;8.334;2023-02-08T03:45:38;7.65;;;3.35;;
19059;SDS011;9663;48.996;8.334;2023-02-08T03:48:13;7.22;;;3.28;;
19059;SDS011;9663;48.996;8.334;2023-02-08T03:50:45;7.15;;;3.50;;
19059;SDS011;9663;48.996;8.334;2023-02-08T03:53:15;8.77;;;3.75;;
19059;SDS011;9663;48.996;8.334;2023-02-08T03:55:44;9.05;;;4.00;;
19059;SDS011;9663;48.996;8.334;2023-02-08T03:58:17;7.70;;;3.42;;
19059;SDS011;9663;48.996;8.334;2023-02-08T04:01:05;8.77;;;3.53;;
19059;SDS011;9663;48.996;8.334;2023-02-08T04:03:41;7.15;;;3.33;;
19059;SDS011;9663;48.996;8.334;2023-02-08T04:06:12;8.00;;;3.45;;
19059;SDS011;9663;48.996;8.334;2023-02-08T04:08:38;7.78;;;3.58;;
19059;SDS011;9663;48.996;8.334;2023-02-08T04:11:04;8.55;;;3.53;;
19059;SDS011;9663;48.996;8.334;2023-02-08T04:13:30;8.38;;;3.92;;
19059;SDS011;9663;48.996;8.334;2023-02-08T04:15:55;8.13;;;3.80;;
19059;SDS011;9663;48.996;8.334;2023-02-08T04:18:21;9.18;;;4.35;;
19059;SDS011;9663;48.996;8.334;2023-02-08T04:20:46;8.23;;;3.50;;
19059;SDS011;9663;48.996;8.334;2023-02-08T04:23:12;8.32;;;4.03;;
19059;SDS011;9663;48.996;8.334;2023-02-08T04:25:38;8.10;;;3.90;;
19059;SDS011;9663;48.996;8.334;2023-02-08T04:28:03;10.30;;;3.65;;
19059;SDS011;9663;48.996;8.334;2023-02-08T04:30:29;8.77;;;4.13;;
19059;SDS011;9663;48.996;8.334;2023-02-08T04:32:55;8.75;;;3.85;;
19059;SDS011;9663;48.996;8.334;2023-02-08T04:35:20;7.88;;;3.85;;
19059;SDS011;9663;48.996;8.334;2023-02-08T04:37:46;6.75;;;3.28;;
19059;SDS011;9663;48.996;8.334;2023-02-08T04:40:12;6.78;;;3.42;;
19059;SDS011;9663;48.996;8.334;2023-02-08T04:42:37;9.20;;;3.97;;
19059;SDS011;9663;48.996;8.334;2023-02-08T04:45:03;7.97;;;3.58;;
19059;SDS011;9663;48.996;8.334;2023-02-08T04:47:29;8.20;;;3.90;;
19059;SDS011;9663;48.996;8.334;2023-02-08T04:49:55;7.82;;;3.75;;
19059;SDS011;9663;48.996;8.334;2023-02-08T04:52:20;8.85;;;4.10;;
19059;SDS011;9663;48.996;8.334;2023-02-08T04:54:46;7.70;;;3.60;;
19059;SDS011;9663;48.996;8.334;2023-02-08T04:57:12;8.00;;;3.80;;
19059;SDS011;9663;48.996;8.334;2023-02-08T04:59:39;8.35;;;3.70;;
19059;SDS011;9663;48.996;8.334;2023-02-08T05:02:05;9.45;;;4.13;;
19059;SDS011;9663;48.996;8.334;2023-02-08T05:04:30;9.70;;;3.97;;
19059;SDS011;9663;48.996;8.334;2023-02-08T05:06:56;8.45;;;4.38;;
19059;SDS011;9663;48.996;8.334;2023-02-08T05:09:22;8.65;;;3.50;;
19059;SDS011;9663;48.996;8.334;2023-02-08T05:11:48;7.68;;;3.92;;
19059;SDS011;9663;48.996;8.334;2023-02-08T05:14:14;8.90;;;4.32;;
19059;SDS011;9663;48.996;8.334;2023-02-08T05:16:39;9.50;;;4.20;;
19059;SDS011;9663;48.996;8.334;2023-02-08T05:19:05;6.78;;;3.55;;
19059;SDS011;9663;48.996;8.334;2023-02-08T05:21:31;9.10;;;3.83;;
19059;SDS011;9663;48.996;8.334;2023-02-08T05:23:56;8.45;;;3.50;;
19059;SDS011;9663;48.996;8.334;2023-02-08T05:26:22;9.10;;;3.63;;
19059;SDS011;9663;48.996;8.334;2023-02-08T05:28:48;6.55;;;3.30;;
19059;SDS011;9663;48.996;8.334;2023-02-08T05:31:16;9.40;;;3.88;;
19059;SDS011;9663;48.996;8.334;2023-02-08T05:33:47;7.15;;;3.55;;
19059;SDS011;9663;48.996;8.334;2023-02-08T05:36:14;8.57;;;4.10;;
19059;SDS011;9663;48.996;8.334;2023-02-08T05:38:41;7.65;;;3.67;;
19059;SDS011;9663;48.996;8.334;2023-02-08T05:41:07;7.75;;;3.65;;
19059;SDS011;9663;48.996;8.334;2023-02-08T05:43:33;9.85;;;4.50;;
19059;SDS011;9663;48.996;8.334;2023-02-08T05:46:00;8.25;;;3.72;;
19059;SDS011;9663;48.996;8.334;2023-02-08T05:48:25;8.82;;;4.25;;
19059;SDS011;9663;48.996;8.334;2023-02-08T05:50:51;7.93;;;3.30;;
19059;SDS011;9663;48.996;8.334;2023-02-08T05:53:17;8.60;;;4.22;;
19059;SDS011;9663;48.996;8.334;2023-02-08T05:55:43;7.90;;;3.72;;
19059;SDS011;9663;48.996;8.334;2023-02-08T05:58:11;8.52;;;4.07;;
19059;SDS011;9663;48.996;8.334;2023-02-08T06:00:37;8.20;;;3.72;;
19059;SDS011;9663;48.996;8.334;2023-02-08T06:03:03;7.85;;;4.03;;
19059;SDS011;9663;48.996;8.334;2023-02-08T06:05:28;10.45;;;5.60;;
19059;SDS011;9663;48.996;8.334;2023-02-08T06:07:54;10.60;;;4.90;;
19059;SDS011;9663;48.996;8.334;2023-02-08T06:10:20;10.23;;;4.78;;
19059;SDS011;9663;48.996;8.334;2023-02-08T06:12:45;8.18;;;3.88;;
19059;SDS011;9663;48.996;8.334;2023-02-08T06:15:11;8.57;;;3.97;;
19059;SDS011;9663;48.996;8.334;2023-02-08T06:17:37;8.23;;;3.90;;
19059;SDS011;9663;48.996;8.334;2023-02-08T06:20:03;7.05;;;3.60;;
19059;SDS011;9663;48.996;8.334;2023-02-08T06:22:29;6.95;;;3.72;;
19059;SDS011;9663;48.996;8.334;2023-02-08T06:24:54;7.63;;;3.55;;
19059;SDS011;9663;48.996;8.334;2023-02-08T06:27:20;7.75;;;4.07;;
19059;SDS011;9663;48.996;8.334;2023-02-08T06:29:46;8.80;;;3.78;;
19059;SDS011;9663;48.996;8.334;2023-02-08T06:32:11;8.98;;;4.07;;
19059;SDS011;9663;48.996;8.334;2023-02-08T06:34:37;9.43;;;4.20;;
19059;SDS011;9663;48.996;8.334;2023-02-08T06:37:02;7.72;;;3.60;;
19059;SDS011;9663;48.996;8.334;2023-02-08T06:39:29;7.03;;;3.58;;
19059;SDS011;9663;48.996;8.334;2023-02-08T06:41:55;9.13;;;4.00;;
19059;SDS011;9663;48.996;8.334;2023-02-08T06:44:21;10.00;;;4.43;;
19059;SDS011;9663;48.996;8.334;2023-02-08T06:46:47;9.02;;;3.80;;
19059;SDS011;9663;48.996;8.334;2023-02-08T06:49:13;10.80;;;3.92;;
19059;SDS011;9663;48.996;8.334;2023-02-08T06:51:39;8.02;;;3.85;;
19059;SDS011;9663;48.996;8.334;2023-02-08T06:54:05;11.65;;;4.13;;
19059;SDS011;9663;48.996;8.334;2023-02-08T06:56:30;9.38;;;4.35;;
19059;SDS011;9663;48.996;8.334;2023-02-08T06:58:56;6.65;;;3.50;;
19059;SDS011;9663;48.996;8.334;2023-02-08T07:01:22;7.60;;;3.30;;
19059;SDS011;9663;48.996;8.334;2023-02-08T07:03:48;8.65;;;3.60;;
19059;SDS011;9663;48.996;8.334;2023-02-08T07:06:14;9.10;;;4.35;;
19059;SDS011;9663;48.996;8.334;2023-02-08T07:08:42;7.78;;;3.58;;
19059;SDS011;9663;48.996;8.334;2023-02-08T07:11:13;7.30;;;3.47;;
19059;SDS011;9663;48.996;8.334;2023-02-08T07:13:41;8.10;;;3.90;;
19059;SDS011;9663;48.996;8.334;2023-02-08T07:16:11;8.00;;;3.55;;
19059;SDS011;9663;48.996;8.334;2023-02-08T07:18:37;8.63;;;3.53;;
19059;SDS011;9663;48.996;8.334;2023-02-08T07:21:03;8.70;;;4.20;;
19059;SDS011;9663;48.996;8.334;2023-02-08T07:23:29;8.52;;;4.25;;
19059;SDS011;9663;48.996;8.334;2023-02-08T07:25:55;10.00;;;3.90;;
19059;SDS011;9663;48.996;8.334;2023-02-08T07:28:26;8.27;;;3.60;;
19059;SDS011;9663;48.996;8.334;2023-02-08T07:30:53;9.65;;;4.22;;
19059;SDS011;9663;48.996;8.334;2023-02-08T07:33:19;8.70;;;3.72;;
19059;SDS011;9663;48.996;8.334;2023-02-08T07:35:47;8.35;;;4.13;;
19059;SDS011;9663;48.996;8.334;2023-02-08T07:38:13;7.75;;;4.00;;
19059;SDS011;9663;48.996;8.334;2023-02-08T07:40:39;9.10;;;4.75;;
19059;SDS011;9663;48.996;8.334;2023-02-08T07:43:04;9.00;;;4.18;;
19059;SDS011;9663;48.996;8.334;2023-02-08T07:45:30;8.80;;;4.25;;
19059;SDS011;9663;48.996;8.334;2023-02-08T07:47:56;8.93;;;3.90;;
19059;SDS011;9663;48.996;8.334;2023-02-08T07:50:21;9.35;;;3.85;;
19059;SDS011;9663;48.996;8.334;2023-02-08T07:52:47;9.25;;;4.57;;
19059;SDS011;9663;48.996;8.334;2023-02-08T07:55:13;9.00;;;4.13;;
19059;SDS011;9663;48.996;8.334;2023-02-08T07:57:43;7.55;;;3.97;;
19059;SDS011;9663;48.996;8.334;2023-02-08T08:00:10;8.68;;;4.45;;
19059;SDS011;9663;48.996;8.334;2023-02-08T08:02:37;8.30;;;4.22;;
19059;SDS011;9663;48.996;8.334;2023-02-08T08:05:03;9.77;;;3.90;;
19059;SDS011;9663;48.996;8.334;2023-02-08T08:07:29;11.10;;;4.70;;
19059;SDS011;9663;48.996;8.334;2023-02-08T08:09:54;7.57;;;3.90;;
19059;SDS011;9663;48.996;8.334;2023-02-08T08:12:20;9.02;;;4.75;;
19059;SDS011;9663;48.996;8.334;2023-02-08T08:14:48;8.02;;;3.78;;
19059;SDS011;9663;48.996;8.334;2023-02-08T08:17:15;11.15;;;4.72;;
19059;SDS011;9663;48.996;8.334;2023-02-08T08:19:41;7.47;;;3.85;;
19059;SDS011;9663;48.996;8.334;2023-02-08T08:22:07;8.63;;;4.07;;
19059;SDS011;9663;48.996;8.334;2023-02-08T08:24:33;10.45;;;4.50;;
19059;SDS011;9663;48.996;8.334;2023-02-08T08:27:00;8.63;;;3.97;;
19059;SDS011;9663;48.996;8.334;2023-02-08T08:29:27;8.25;;;3.97;;
19059;SDS011;9663;48.996;8.334;2023-02-08T08:31:55;8.55;;;4.03;;
19059;SDS011;9663;48.996;8.334;2023-02-08T08:34:23;8.30;;;4.25;;
19059;SDS011;9663;48.996;8.334;2023-02-08T08:36:54;8.75;;;4.35;;
19059;SDS011;9663;48.996;8.334;2023-02-08T08:39:21;9.95;;;4.93;;
19059;SDS011;9663;48.996;8.334;2023-02-08T08:41:48;9.25;;;4.75;;
19059;SDS011;9663;48.996;8.334;2023-02-08T08:44:14;10.60;;;5.03;;
19059;SDS011;9663;48.996;8.334;2023-02-08T08:46:39;9.70;;;4.82;;
19059;SDS011;9663;48.996;8.334;2023-02-08T08:49:05;7.70;;;4.13;;
19059;SDS011;9663;48.996;8.334;2023-02-08T08:51:31;7.55;;;3.55;;
19059;SDS011;9663;48.996;8.334;2023-02-08T08:54:02;8.02;;;4.03;;
19059;SDS011;9663;48.996;8.334;2023-02-08T08:56:29;7.90;;;4.47;;
19059;SDS011;9663;48.996;8.334;2023-02-08T08:58:56;9.88;;;4.75;;
19059;SDS011;9663;48.996;8.334;2023-02-08T09:01:22;8.00;;;4.07;;
19059;SDS011;9663;48.996;8.334;2023-02-08T09:03:48;8.02;;;4.05;;
19059;SDS011;9663;48.996;8.334;2023-02-08T09:06:14;9.15;;;4.07;;
19059;SDS011;9663;48.996;8.334;2023-02-08T09:08:40;8.27;;;4.15;;
19059;SDS011;9663;48.996;8.334;2023-02-08T09:11:07;8.68;;;4.43;;
19059;SDS011;9663;48.996;8.334;2023-02-08T09:13:39;10.45;;;4.50;;
19059;SDS011;9663;48.996;8.334;2023-02-08T09:16:07;8.70;;;4.78;;
19059;SDS011;9663;48.996;8.334;2023-02-08T09:18:37;9.82;;;4.10;;
19059;SDS011;9663;48.996;8.334;2023-02-08T09:21:16;8.85;;;4.28;;
19059;SDS011;9663;48.996;8.334;2023-02-08T09:23:45;8.40;;;4.22;;
19059;SDS011;9663;48.996;8.334;2023-02-08T09:26:12;9.20;;;4.50;;
19059;SDS011;9663;48.996;8.334;2023-02-08T09:28:41;7.95;;;3.90;;
19059;SDS011;9663;48.996;8.334;2023-02-08T09:31:26;9.57;;;4.20;;
19059;SDS011;9663;48.996;8.334;2023-02-08T09:33:56;8.35;;;4.18;;
19059;SDS011;9663;48.996;8.334;2023-02-08T09:36:25;7.65;;;3.90;;
19059;SDS011;9663;48.996;8.334;2023-02-08T09:38:56;9.48;;;4.60;;
19059;SDS011;9663;48.996;8.334;2023-02-08T09:44:22;10.50;;;5.32;;
19059;SDS011;9663;48.996;8.334;2023-02-08T09:47:20;10.32;;;4.43;;
19059;SDS011;9663;48.996;8.334;2023-02-08T09:50:00;8.65;;;4.53;;
19059;SDS011;9663;48.996;8.334;2023-02-08T09:55:45;10.10;;;4.57;;
19059;SDS011;9663;48.996;8.334;2023-02-08T09:58:16;8.93;;;4.55;;
19059;SDS011;9663;48.996;8.334;2023-02-08T10:01:09;8.73;;;4.72;;
19059;SDS011;9663;48.996;8.334;2023-02-08T10:03:48;8.65;;;4.10;;
19059;SDS011;9663;48.996;8.334;2023-02-08T10:06:19;9.38;;;5.13;;
19059;SDS011;9663;48.996;8.334;2023-02-08T10:08:47;8.23;;;4.47;;
19059;SDS011;9663;48.996;8.334;2023-02-08T10:11:26;8.88;;;4.18;;
19059;SDS011;9663;48.996;8.334;2023-02-08T10:26:12;8.40;;;3.88;;
19059;SDS011;9663;48.996;8.334;2023-02-08T10:29:04;7.40;;;3.83;;
19059;SDS011;9663;48.996;8.334;2023-02-08T10:32:13;7.78;;;4.07;;
19059;SDS011;9663;48.996;8.334;2023-02-08T10:35:22;7.65;;;4.45;;
19059;SDS011;9663;48.996;8.334;2023-02-08T10:37:52;7.80;;;3.92;;
19059;SDS011;9663;48.996;8.334;2023-02-08T10:40:25;8.13;;;4.15;;
19059;SDS011;9663;48.996;8.334;2023-02-08T10:43:08;7.65;;;3.60;;
19059;SDS011;9663;48.996;8.334;2023-02-08T10:52:04;7.22;;;3.65;;
19059;SDS011;9663;48.996;8.334;2023-02-08T10:54:32;8.73;;;3.65;;
19059;SDS011;9663;48.996;8.334;2023-02-08T10:56:59;7.70;;;3.88;;
19059;SDS011;9663;48.996;8.334;2023-02-08T10:59:32;8.15;;;3.78;;
19059;SDS011;9663;48.996;8.334;2023-02-08T11:02:28;7.78;;;3.90;;
19059;SDS011;9663;48.996;8.334;2023-02-08T11:05:06;8.18;;;4.15;;
19059;SDS011;9663;48.996;8.334;2023-02-08T11:07:39;6.63;;;3.45;;
19059;SDS011;9663;48.996;8.334;2023-02-08T11:12:40;6.88;;;3.35;;
19059;SDS011;9663;48.996;8.334;2023-02-08T11:15:28;7.20;;;3.42;;
19059;SDS011;9663;48.996;8.334;2023-02-08T11:18:26;6.05;;;3.45;;
19059;SDS011;9663;48.996;8.334;2023-02-08T11:21:07;6.22;;;2.95;;
19059;SDS011;9663;48.996;8.334;2023-02-08T11:23:48;7.60;;;3.35;;
19059;SDS011;9663;48.996;8.334;2023-02-08T11:26:31;7.22;;;2.90;;
19059;SDS011;9663;48.996;8.334;2023-02-08T11:29:13;8.50;;;4.90;;
19059;SDS011;9663;48.996;8.334;2023-02-08T11:32:03;7.30;;;4.20;;
19059;SDS011;9663;48.996;8.334;2023-02-08T11:34:43;7.53;;;3.92;;
19059;SDS011;9663;48.996;8.334;2023-02-08T11:37:20;8.35;;;3.88;;
19059;SDS011;9663;48.996;8.334;2023-02-08T11:39:53;6.95;;;3.30;;
19059;SDS011;9663;48.996;8.334;2023-02-08T11:42:23;7.25;;;3.78;;
19059;SDS011;9663;48.996;8.334;2023-02-08T11:44:53;5.45;;;3.15;;
19059;SDS011;9663;48.996;8.334;2023-02-08T11:47:31;6.35;;;3.20;;
19059;SDS011;9663;48.996;8.334;2023-02-08T11:50:01;6.28;;;3.22;;
19059;SDS011;9663;48.996;8.334;2023-02-08T11:52:38;5.88;;;3.33;;
19059;SDS011;9663;48.996;8.334;2023-02-08T11:57:50;6.10;;;3.58;;
19059;SDS011;9663;48.996;8.334;2023-02-08T12:00:26;6.68;;;3.72;;
19059;SDS011;9663;48.996;8.334;2023-02-08T12:03:01;6.75;;;3.58;;
19059;SDS011;9663;48.996;8.334;2023-02-08T12:11:43;6.22;;;3.45;;
19059;SDS011;9663;48.996;8.334;2023-02-08T12:26:15;6.90;;;3.58;;
19059;SDS011;9663;48.996;8.334;2023-02-08T12:37:57;6.10;;;3.10;;
19059;SDS011;9663;48.996;8.334;2023-02-08T12:41:20;6.07;;;3.40;;
19059;SDS011;9663;48.996;8.334;2023-02-08T12:52:51;6.63;;;2.90;;
19059;SDS011;9663;48.996;8.334;2023-02-08T12:55:29;6.60;;;3.47;;
19059;SDS011;9663;48.996;8.334;2023-02-08T12:58:06;6.63;;;3.40;;
19059;SDS011;9663;48.996;8.334;2023-02-08T13:00:54;6.70;;;3.90;;
19059;SDS011;9663;48.996;8.334;2023-02-08T13:06:01;7.60;;;3.90;;
19059;SDS011;9663;48.996;8.334;2023-02-08T13:08:38;6.40;;;3.38;;
19059;SDS011;9663;48.996;8.334;2023-02-08T13:11:17;6.63;;;3.42;;
19059;SDS011;9663;48.996;8.334;2023-02-08T13:14:14;6.25;;;3.38;;
19059;SDS011;9663;48.996;8.334;2023-02-08T13:17:20;6.80;;;3.55;;
19059;SDS011;9663;48.996;8.334;2023-02-08T13:22:32;6.32;;;3.10;;
19059;SDS011;9663;48.996;8.334;2023-02-08T13:25:03;7.40;;;3.53;;
19059;SDS011;9663;48.996;8.334;2023-02-08T13:27:40;7.13;;;3.67;;
19059;SDS011;9663;48.996;8.334;2023-02-08T13:30:06;6.82;;;3.58;;
19059;SDS011;9663;48.996;8.334;2023-02-08T13:32:45;6.40;;;3.33;;
19059;SDS011;9663;48.996;8.334;2023-02-08T13:35:27;10.23;;;4.03;;
19059;SDS011;9663;48.996;8.334;2023-02-08T13:37:57;8.77;;;4.03;;
19059;SDS011;9663;48.996;8.334;2023-02-08T13:40:42;9.07;;;4.90;;
19059;SDS011;9663;48.996;8.334;2023-02-08T13:45:49;8.07;;;3.95;;
19059;SDS011;9663;48.996;8.334;2023-02-08T13:48:17;7.90;;;3.88;;
19059;SDS011;9663;48.996;8.334;2023-02-08T13:53:15;7.65;;;3.90;;
19059;SDS011;9663;48.996;8.334;2023-02-08T13:56:02;6.38;;;3.42;;
19059;SDS011;9663;48.996;8.334;2023-02-08T14:09:41;6.78;;;3.25;;
19059;SDS011;9663;48.996;8.334;2023-02-08T14:12:29;7.10;;;3.45;;
19059;SDS011;9663;48.996;8.334;2023-02-08T14:17:41;8.02;;;3.70;;
19059;SDS011;9663;48.996;8.334;2023-02-08T14:20:21;7.72;;;3.80;;
19059;SDS011;9663;48.996;8.334;2023-02-08T14:22:55;6.97;;;3.15;;
19059;SDS011;9663;48.996;8.334;2023-02-08T14:25:29;7.78;;;3.90;;
19059;SDS011;9663;48.996;8.334;2023-02-08T14:30:52;7.25;;;3.38;;
19059;SDS011;9663;48.996;8.334;2023-02-08T14:33:25;5.97;;;3.10;;
19059;SDS011;9663;48.996;8.334;2023-02-08T14:35:58;6.80;;;3.40;;
19059;SDS011;9663;48.996;8.334;2023-02-08T14:38:33;7.03;;;3.40;;
19059;SDS011;9663;48.996;8.334;2023-02-08T14:41:48;6.03;;;3.05;;
19059;SDS011;9663;48.996;8.334;2023-02-08T14:50:00;6.47;;;3.05;;
19059;SDS011;9663;48.996;8.334;2023-02-08T14:52:49;7.65;;;3.05;;
19059;SDS011;9663;48.996;8.334;2023-02-08T14:55:55;8.23;;;3.40;;
19059;SDS011;9663;48.996;8.334;2023-02-08T14:59:06;5.82;;;2.50;;
19059;SDS011;9663;48.996;8.334;2023-02-08T15:01:43;6.95;;;2.95;;
19059;SDS011;9663;48.996;8.334;2023-02-08T15:04:23;6.40;;;2.75;;
19059;SDS011;9663;48.996;8.334;2023-02-08T15:07:04;6.43;;;3.08;;
19059;SDS011;9663;48.996;8.334;2023-02-08T15:10:01;5.25;;;2.35;;
19059;SDS011;9663;48.996;8.334;2023-02-08T15:12:34;6.50;;;2.60;;
19059;SDS011;9663;48.996;8.334;2023-02-08T15:15:04;6.13;;;2.63;;
19059;SDS011;9663;48.996;8.334;2023-02-08T15:17:36;8.00;;;3.40;;
19059;SDS011;9663;48.996;8.334;2023-02-08T15:20:20;6.38;;;3.15;;
19059;SDS011;9663;48.996;8.334;2023-02-08T15:22:56;7.13;;;3.00;;
19059;SDS011;9663;48.996;8.334;2023-02-08T15:25:28;6.70;;;2.92;;
19059;SDS011;9663;48.996;8.334;2023-02-08T15:28:15;5.32;;;2.35;;
19059;SDS011;9663;48.996;8.334;2023-02-08T15:30:44;5.68;;;3.10;;
19059;SDS011;9663;48.996;8.334;2023-02-08T15:33:26;6.43;;;2.83;;
19059;SDS011;9663;48.996;8.334;2023-02-08T15:35:59;5.35;;;2.67;;
19059;SDS011;9663;48.996;8.334;2023-02-08T15:38:38;5.78;;;2.45;;
19059;SDS011;9663;48.996;8.334;2023-02-08T15:41:13;5.53;;;2.38;;
19059;SDS011;9663;48.996;8.334;2023-02-08T15:43:49;6.20;;;2.60;;
19059;SDS011;9663;48.996;8.334;2023-02-08T15:46:22;5.45;;;2.95;;
19059;SDS011;9663;48.996;8.334;2023-02-08T15:48:51;5.75;;;2.78;;
19059;SDS011;9663;48.996;8.334;2023-02-08T15:51:18;5.25;;;2.33;;
19059;SDS011;9663;48.996;8.334;2023-02-08T15:53:47;6.03;;;2.80;;
19059;SDS011;9663;48.996;8.334;2023-02-08T15:56:21;6.20;;;2.80;;
19059;SDS011;9663;48.996;8.334;2023-02-08T15:58:59;5.15;;;2.58;;
19059;SDS011;9663;48.996;8.334;2023-02-08T16:01:28;6.20;;;2.35;;
19059;SDS011;9663;48.996;8.334;2023-02-08T16:03:59;5.00;;;2.47;;
19059;SDS011;9663;48.996;8.334;2023-02-08T16:06:37;4.60;;;2.28;;
19059;SDS011;9663;48.996;8.334;2023-02-08T16:09:12;4.65;;;2.58;;
19059;SDS011;9663;48.996;8.334;2023-02-08T16:11:47;6.05;;;2.40;;
19059;SDS011;9663;48.996;8.334;2023-02-08T16:14:14;5.07;;;2.55;;
19059;SDS011;9663;48.996;8.334;2023-02-08T16:16:45;5.20;;;2.38;;
19059;SDS011;9663;48.996;8.334;2023-02-08T16:19:27;6.13;;;2.75;;
19059;SDS011;9663;48.996;8.334;2023-02-08T16:21:55;5.10;;;2.15;;
19059;SDS011;9663;48.996;8.334;2023-02-08T16:24:47;5.45;;;2.20;;
19059;SDS011;9663;48.996;8.334;2023-02-08T16:27:36;5.15;;;1.80;;
19059;SDS011;9663;48.996;8.334;2023-02-08T16:30:00;4.68;;;1.80;;
19059;SDS011;9663;48.996;8.334;2023-02-08T16:32:30;5.57;;;2.20;;
19059;SDS011;9663;48.996;8.334;2023-02-08T16:35:13;4.90;;;2.33;;
19059;SDS011;9663;48.996;8.334;2023-02-08T16:37:52;6.85;;;2.50;;
19059;SDS011;9663;48.996;8.334;2023-02-08T16:43:35;4.78;;;2.28;;
19059;SDS011;9663;48.996;8.334;2023-02-08T16:48:42;5.85;;;2.33;;
19059;SDS011;9663;48.996;8.334;2023-02-08T16:51:17;5.30;;;2.45;;
19059;SDS011;9663;48.996;8.334;2023-02-08T16:53:53;5.10;;;2.20;;
19059;SDS011;9663;48.996;8.334;2023-02-08T16:56:26;5.75;;;2.25;;
19059;SDS011;9663;48.996;8.334;2023-02-08T16:58:53;5.20;;;2.20;;
19059;SDS011;9663;48.996;8.334;2023-02-08T17:01:18;4.95;;;2.30;;
19059;SDS011;9663;48.996;8.334;2023-02-08T17:03:47;5.85;;;2.00;;
19059;SDS011;9663;48.996;8.334;2023-02-08T17:06:22;6.60;;;2.30;;
19059;SDS011;9663;48.996;8.334;2023-02-08T17:09:02;5.38;;;2.28;;
19059;SDS011;9663;48.996;8.334;2023-02-08T17:11:30;4.97;;;2.35;;
19059;SDS011;9663;48.996;8.334;2023-02-08T17:13:56;5.45;;;2.55;;
19059;SDS011;9663;48.996;8.334;2023-02-08T17:16:23;5.53;;;2.30;;
19059;SDS011;9663;48.996;8.334;2023-02-08T17:18:52;5.45;;;2.17;;
19059;SDS011;9663;48.996;8.334;2023-02-08T17:21:18;5.05;;;2.00;;
19059;SDS011;9663;48.996;8.334;2023-02-08T17:23:44;5.78;;;2.28;;
19059;SDS011;9663;48.996;8.334;2023-02-08T17:26:12;5.43;;;2.13;;
19059;SDS011;9663;48.996;8.334;2023-02-08T17:28:52;6.22;;;2.30;;
19059;SDS011;9663;48.996;8.334;2023-02-08T17:31:23;5.32;;;2.22;;
19059;SDS011;9663;48.996;8.334;2023-02-08T17:33:50;7.07;;;2.38;;
19059;SDS011;9663;48.996;8.334;2023-02-08T17:36:16;5.15;;;2.25;;
19059;SDS011;9663;48.996;8.334;2023-02-08T17:38:43;5.30;;;2.20;;
19059;SDS011;9663;48.996;8.334;2023-02-08T17:41:15;4.25;;;2.05;;
19059;SDS011;9663;48.996;8.334;2023-02-08T17:43:44;5.85;;;2.55;;
19059;SDS011;9663;48.996;8.334;2023-02-08T17:46:15;4.47;;;2.03;;
19059;SDS011;9663;48.996;8.334;2023-02-08T17:48:46;6.10;;;2.28;;
19059;SDS011;9663;48.996;8.334;2023-02-08T17:51:16;5.25;;;2.28;;
19059;SDS011;9663;48.996;8.334;2023-02-08T17:53:45;5.95;;;2.30;;
19059;SDS011;9663;48.996;8.334;2023-02-08T17:56:30;4.75;;;1.80;;